createdAt,value
2019-03-25T00:00:24.600Z,38.90
2019-03-25T00:01:24.574Z,38.10
2019-03-25T00:02:24.574Z,35.40
2019-03-25T00:03:24.550Z,40.20
2019-03-25T00:04:24.586Z,36.40
2019-03-25T00:05:24.537Z,40.60
2019-03-25T00:06:24.520Z,35.80
2019-03-25T00:07:24.530Z,40.60
2019-03-25T00:08:24.530Z,41.00
2019-03-25T00:09:24.500Z,39.80
2019-03-25T00:10:24.540Z,35.50
2019-03-25T00:11:24.462Z,36.80
2019-03-25T00:12:24.450Z,38.50
2019-03-25T00:13:24.450Z,38.30
2019-03-25T00:14:24.474Z,39.90
2019-03-25T00:15:24.414Z,39.20
2019-03-25T00:16:24.420Z,39.10
2019-03-25T00:17:24.402Z,34.70
2019-03-25T00:18:24.390Z,34.90
2019-03-25T00:19:24.380Z,37.50
2019-03-25T00:20:24.390Z,38.90
2019-03-25T00:21:24.363Z,33.00
2019-03-25T00:22:24.391Z,38.20
2019-03-25T00:23:24.343Z,38.00
2019-03-25T00:24:37.907Z,35.00
2019-03-25T00:25:24.318Z,37.60
2019-03-25T00:26:24.306Z,37.00
2019-03-25T00:27:24.290Z,36.20
2019-03-25T00:28:24.306Z,37.30
2019-03-25T00:29:24.279Z,37.50
2019-03-25T00:30:24.263Z,37.60
2019-03-25T00:31:24.249Z,35.30
2019-03-25T00:32:24.249Z,32.30
2019-03-25T00:33:24.253Z,34.90
2019-03-25T00:34:24.214Z,34.00
2019-03-25T00:35:24.207Z,33.20
2019-03-25T00:36:24.201Z,32.30
2019-03-25T00:37:24.179Z,32.10
2019-03-25T00:38:24.179Z,29.60
2019-03-25T00:39:24.190Z,31.80
2019-03-25T00:40:24.144Z,28.40
2019-03-25T00:41:24.182Z,28.20
2019-03-25T00:42:24.145Z,30.70
2019-03-25T00:43:24.116Z,27.90
2019-03-25T00:44:24.097Z,27.50
2019-03-25T00:45:24.115Z,28.90
2019-03-25T00:46:24.078Z,24.10
2019-03-25T00:47:24.071Z,24.80
2019-03-25T00:48:24.064Z,28.00
2019-03-25T00:49:24.067Z,27.20
2019-03-25T00:50:24.042Z,26.40
2019-03-25T00:51:24.024Z,26.60
2019-03-25T00:52:24.020Z,28.20
2019-03-25T00:53:24.010Z,25.90
2019-03-25T00:54:24.017Z,27.20
2019-03-25T00:55:23.978Z,23.10
2019-03-25T00:56:23.991Z,23.00
2019-03-25T00:57:23.965Z,22.90
2019-03-25T00:58:23.944Z,28.80
2019-03-25T00:59:23.963Z,22.50
2019-03-25T01:00:23.934Z,23.40
2019-03-25T01:01:23.930Z,26.10
2019-03-25T01:02:23.917Z,23.10
2019-03-25T01:03:23.899Z,24.50
2019-03-25T01:04:23.895Z,23.80
2019-03-25T01:05:23.977Z,25.20
2019-03-25T01:06:23.865Z,24.00
2019-03-25T01:07:23.868Z,22.90
2019-03-25T01:08:23.850Z,20.80
2019-03-25T01:09:23.833Z,22.40
2019-03-25T01:10:23.842Z,23.00
2019-03-25T01:11:23.823Z,23.20
2019-03-25T01:12:26.501Z,23.80
2019-03-25T01:13:23.806Z,21.90
2019-03-25T01:14:23.783Z,21.70
2019-03-25T01:15:23.771Z,21.40
2019-03-25T01:16:23.759Z,20.00
2019-03-25T01:17:23.751Z,21.70
2019-03-25T01:18:23.745Z,20.80
2019-03-25T01:19:23.735Z,20.30
2019-03-25T01:20:23.846Z,23.10
2019-03-25T01:21:23.702Z,22.80
2019-03-25T01:22:23.707Z,20.90
2019-03-25T01:23:23.689Z,22.20
2019-03-25T01:24:23.688Z,19.50
2019-03-25T01:25:23.677Z,19.80
2019-03-25T01:26:23.644Z,18.20
2019-03-25T01:27:23.643Z,19.20
2019-03-25T01:28:23.664Z,20.80
2019-03-25T01:29:23.607Z,16.30
2019-03-25T01:30:23.621Z,18.50
2019-03-25T01:31:23.613Z,18.20
2019-03-25T01:32:23.579Z,18.50
2019-03-25T01:33:23.627Z,19.30
2019-03-25T01:34:23.577Z,19.10
2019-03-25T01:35:23.555Z,17.60
2019-03-25T01:36:23.529Z,21.10
2019-03-25T01:37:23.523Z,19.00
2019-03-25T01:38:23.995Z,18.10
2019-03-25T01:39:23.505Z,19.00
2019-03-25T01:40:23.528Z,18.30
2019-03-25T01:41:23.482Z,18.60
2019-03-25T01:42:23.489Z,18.90
2019-03-25T01:43:23.467Z,18.30
2019-03-25T01:44:23.449Z,18.70
2019-03-25T01:45:23.454Z,18.90
2019-03-25T01:46:23.452Z,20.30
2019-03-25T01:47:23.985Z,22.80
2019-03-25T01:48:23.447Z,19.90
2019-03-25T01:49:23.399Z,18.40
2019-03-25T01:50:23.404Z,18.00
2019-03-25T01:51:23.375Z,19.50
2019-03-25T01:52:23.385Z,18.90
2019-03-25T01:53:23.373Z,17.90
2019-03-25T01:54:23.345Z,17.20
2019-03-25T01:55:23.368Z,15.00
2019-03-25T01:56:23.328Z,18.50
2019-03-25T01:57:23.313Z,16.40
2019-03-25T01:58:23.367Z,19.70
2019-03-25T01:59:23.305Z,15.40
2019-03-25T02:00:23.279Z,18.70
2019-03-25T02:01:25.983Z,17.20
2019-03-25T02:02:23.263Z,16.60
2019-03-25T02:03:23.247Z,21.30
2019-03-25T02:04:23.278Z,17.50
2019-03-25T02:05:23.245Z,15.60
2019-03-25T02:06:23.241Z,18.30
2019-03-25T02:07:23.233Z,20.40
2019-03-25T02:08:23.189Z,16.80
2019-03-25T02:09:23.177Z,18.60
2019-03-25T02:10:23.182Z,16.10
2019-03-25T02:11:23.161Z,18.10
2019-03-25T02:12:25.992Z,18.10
2019-03-25T02:13:23.173Z,15.80
2019-03-25T02:14:23.117Z,17.30
2019-03-25T02:15:23.111Z,17.80
2019-03-25T02:16:23.105Z,20.40
2019-03-25T02:17:23.095Z,18.90
2019-03-25T02:18:23.111Z,16.50
2019-03-25T02:19:23.109Z,18.60
2019-03-25T02:20:26.708Z,16.70
2019-03-25T02:21:23.059Z,22.50
2019-03-25T02:22:23.047Z,20.00
2019-03-25T02:23:23.023Z,17.30
2019-03-25T02:24:23.037Z,18.50
2019-03-25T02:25:25.679Z,18.20
2019-03-25T02:26:25.479Z,17.80
2019-03-25T02:27:22.999Z,18.50
2019-03-25T02:29:22.011Z,19.40
2019-03-25T02:30:22.972Z,17.60
2019-03-25T02:31:22.950Z,19.60
2019-03-25T02:32:22.950Z,19.10
2019-03-25T02:33:22.945Z,21.60
2019-03-25T02:34:22.918Z,22.20
2019-03-25T02:35:22.908Z,18.40
2019-03-25T02:36:23.471Z,21.10
2019-03-25T02:37:22.883Z,20.00
2019-03-25T02:38:22.879Z,17.70
2019-03-25T02:39:22.858Z,19.40
2019-03-25T02:40:22.884Z,20.20
2019-03-25T02:41:22.852Z,20.00
2019-03-25T02:42:25.474Z,22.00
2019-03-25T02:43:22.814Z,20.40
2019-03-25T02:44:22.819Z,19.40
2019-03-25T02:45:22.888Z,19.70
2019-03-25T02:46:26.041Z,16.80
2019-03-25T02:47:22.786Z,19.50
2019-03-25T02:48:25.476Z,19.60
2019-03-25T02:49:22.763Z,22.70
2019-03-25T02:50:22.757Z,18.70
2019-03-25T02:51:22.720Z,19.20
2019-03-25T02:52:22.730Z,21.40
2019-03-25T02:53:22.715Z,22.30
2019-03-25T02:54:22.704Z,22.70
2019-03-25T02:56:21.694Z,20.20
2019-03-25T02:57:22.687Z,19.50
2019-03-25T02:58:22.666Z,22.20
2019-03-25T02:59:22.664Z,19.40
2019-03-25T03:00:22.626Z,19.40
2019-03-25T03:01:22.618Z,21.20
2019-03-25T03:02:22.622Z,19.00
2019-03-25T03:03:22.613Z,20.70
2019-03-25T03:04:22.604Z,22.30
2019-03-25T03:05:22.584Z,17.40
2019-03-25T03:06:22.580Z,21.40
2019-03-25T03:07:22.569Z,18.70
2019-03-25T03:08:22.551Z,18.40
2019-03-25T03:09:22.627Z,20.20
2019-03-25T03:10:22.534Z,24.20
2019-03-25T03:11:22.555Z,24.40
2019-03-25T03:12:22.507Z,19.80
2019-03-25T03:13:22.502Z,19.20
2019-03-25T03:14:22.486Z,20.80
2019-03-25T03:15:22.483Z,18.90
2019-03-25T03:16:22.458Z,21.50
2019-03-25T03:17:22.462Z,21.10
2019-03-25T03:18:22.434Z,19.90
2019-03-25T03:19:22.467Z,20.90
2019-03-25T03:20:22.416Z,22.60
2019-03-25T03:21:22.418Z,21.00
2019-03-25T03:22:22.398Z,20.90
2019-03-25T03:23:22.389Z,20.30
2019-03-25T03:24:22.415Z,20.10
2019-03-25T03:25:22.359Z,19.50
2019-03-25T03:26:22.378Z,22.10
2019-03-25T03:27:22.335Z,17.40
2019-03-25T03:28:22.349Z,19.50
2019-03-25T03:29:22.332Z,21.30
2019-03-25T03:30:24.973Z,18.30
2019-03-25T03:31:22.298Z,19.00
2019-03-25T03:32:22.276Z,18.40
2019-03-25T03:33:22.281Z,19.70
2019-03-25T03:34:22.278Z,20.10
2019-03-25T03:35:22.308Z,19.40
2019-03-25T03:36:22.253Z,18.70
2019-03-25T03:37:22.228Z,20.20
2019-03-25T03:38:22.238Z,19.20
2019-03-25T03:39:22.207Z,18.20
2019-03-25T03:40:22.233Z,17.00
2019-03-25T03:41:22.968Z,19.70
2019-03-25T03:42:22.178Z,18.90
2019-03-25T03:43:22.160Z,21.40
2019-03-25T03:44:22.155Z,22.50
2019-03-25T03:45:22.159Z,18.00
2019-03-25T03:46:22.139Z,17.30
2019-03-25T03:47:22.126Z,17.10
2019-03-25T03:48:22.110Z,19.60
2019-03-25T03:49:22.102Z,19.90
2019-03-25T03:50:22.105Z,15.60
2019-03-25T03:51:22.086Z,17.30
2019-03-25T03:52:22.070Z,19.30
2019-03-25T03:53:22.055Z,17.50
2019-03-25T03:54:22.048Z,18.50
2019-03-25T03:55:22.036Z,19.80
2019-03-25T03:56:22.047Z,20.80
2019-03-25T03:57:22.010Z,21.40
2019-03-25T03:58:22.013Z,17.60
2019-03-25T03:59:22.014Z,20.90
2019-03-25T04:00:21.980Z,20.80
2019-03-25T04:01:24.449Z,15.00
2019-03-25T04:02:21.963Z,16.80
2019-03-25T04:03:21.943Z,18.70
2019-03-25T04:04:21.934Z,17.60
2019-03-25T04:05:21.974Z,18.70
2019-03-25T04:06:21.914Z,18.20
2019-03-25T04:07:21.909Z,19.00
2019-03-25T04:08:21.921Z,17.00
2019-03-25T04:09:21.919Z,17.70
2019-03-25T04:10:21.901Z,18.00
2019-03-25T04:11:21.858Z,21.70
2019-03-25T04:12:21.864Z,16.60
2019-03-25T04:13:24.449Z,18.30
2019-03-25T04:14:21.822Z,19.40
2019-03-25T04:15:21.845Z,20.60
2019-03-25T04:16:21.813Z,17.80
2019-03-25T04:17:21.812Z,18.50
2019-03-25T04:18:21.785Z,18.20
2019-03-25T04:19:21.820Z,18.00
2019-03-25T04:20:21.753Z,17.00
2019-03-25T04:21:21.767Z,17.30
2019-03-25T04:22:21.757Z,21.70
2019-03-25T04:23:21.729Z,21.50
2019-03-25T04:24:21.744Z,16.70
2019-03-25T04:25:21.705Z,19.10
2019-03-25T04:26:28.339Z,18.30
2019-03-25T04:27:21.708Z,19.70
2019-03-25T04:28:21.673Z,20.80
2019-03-25T04:29:21.670Z,18.90
2019-03-25T04:30:21.671Z,21.30
2019-03-25T04:31:21.647Z,19.80
2019-03-25T04:32:21.630Z,21.80
2019-03-25T04:33:21.642Z,18.00
2019-03-25T04:34:21.609Z,22.70
2019-03-25T04:35:21.600Z,20.70
2019-03-25T04:36:21.599Z,23.70
2019-03-25T04:37:21.577Z,20.00
2019-03-25T04:38:21.568Z,24.00
2019-03-25T04:39:21.568Z,20.90
2019-03-25T04:40:21.578Z,21.30
2019-03-25T04:41:21.535Z,23.80
2019-03-25T04:42:21.521Z,23.90
2019-03-25T04:43:21.511Z,20.50
2019-03-25T04:44:21.516Z,20.70
2019-03-25T04:45:21.502Z,22.50
2019-03-25T04:46:21.508Z,20.40
2019-03-25T04:47:21.480Z,23.50
2019-03-25T04:48:21.456Z,24.20
2019-03-25T04:49:21.452Z,21.80
2019-03-25T04:50:21.436Z,24.70
2019-03-25T04:51:23.933Z,22.50
2019-03-25T04:52:23.931Z,25.40
2019-03-25T04:53:21.398Z,23.10
2019-03-25T04:54:21.391Z,21.10
2019-03-25T04:55:21.389Z,22.80
2019-03-25T04:56:21.379Z,21.80
2019-03-25T04:57:21.358Z,21.40
2019-03-25T04:58:21.358Z,23.70
2019-03-25T04:59:21.338Z,21.40
2019-03-25T05:00:21.335Z,24.00
2019-03-25T05:01:21.350Z,22.30
2019-03-25T05:02:21.322Z,30.70
2019-03-25T05:03:21.317Z,25.10
2019-03-25T05:04:21.313Z,24.10
2019-03-25T05:05:21.278Z,25.70
2019-03-25T05:06:21.275Z,24.50
2019-03-25T05:07:21.282Z,24.50
2019-03-25T05:08:21.263Z,23.90
2019-03-25T05:09:21.251Z,20.20
2019-03-25T05:10:21.224Z,22.50
2019-03-25T05:11:30.317Z,23.90
2019-03-25T05:12:21.204Z,22.10
2019-03-25T05:13:21.204Z,22.50
2019-03-25T05:14:21.178Z,21.60
2019-03-25T05:15:21.160Z,24.10
2019-03-25T05:16:21.158Z,23.80
2019-03-25T05:17:21.215Z,22.90
2019-03-25T05:18:21.134Z,20.60
2019-03-25T05:19:21.154Z,24.60
2019-03-25T05:20:21.117Z,22.50
2019-03-25T05:21:21.116Z,23.20
2019-03-25T05:22:21.104Z,23.70
2019-03-25T05:23:21.083Z,22.80
2019-03-25T05:24:21.060Z,21.50
2019-03-25T05:25:21.080Z,22.90
2019-03-25T05:26:21.048Z,23.70
2019-03-25T05:27:21.046Z,26.40
2019-03-25T05:28:21.023Z,23.40
2019-03-25T05:29:21.019Z,24.80
2019-03-25T05:30:23.024Z,22.70
2019-03-25T05:31:21.033Z,23.80
2019-03-25T05:32:20.984Z,26.70
2019-03-25T05:33:20.969Z,22.90
2019-03-25T05:34:20.962Z,20.80
2019-03-25T05:35:20.993Z,23.50
2019-03-25T05:36:20.942Z,20.70
2019-03-25T05:37:20.929Z,21.40
2019-03-25T05:38:20.918Z,18.40
2019-03-25T05:39:20.906Z,18.40
2019-03-25T05:40:20.895Z,21.60
2019-03-25T05:41:20.896Z,18.30
2019-03-25T05:42:20.888Z,18.10
2019-03-25T05:43:21.233Z,19.40
2019-03-25T05:44:20.862Z,22.90
2019-03-25T05:45:20.860Z,20.10
2019-03-25T05:46:20.827Z,19.20
2019-03-25T05:47:20.840Z,16.60
2019-03-25T05:48:21.446Z,19.40
2019-03-25T05:49:20.810Z,16.30
2019-03-25T05:50:20.800Z,21.40
2019-03-25T05:51:20.804Z,20.00
2019-03-25T05:52:20.789Z,18.10
2019-03-25T05:53:20.763Z,18.90
2019-03-25T05:54:20.750Z,16.10
2019-03-25T05:55:20.740Z,19.80
2019-03-25T05:56:20.734Z,19.80
2019-03-25T05:57:20.738Z,18.10
2019-03-25T05:58:20.704Z,19.60
2019-03-25T05:59:20.698Z,18.20
2019-03-25T06:00:20.686Z,17.80
2019-03-25T06:01:20.683Z,18.00
2019-03-25T06:02:20.674Z,19.90
2019-03-25T06:03:20.678Z,19.50
2019-03-25T06:04:20.631Z,17.50
2019-03-25T06:05:23.409Z,17.10
2019-03-25T06:06:20.608Z,19.40
2019-03-25T06:07:20.622Z,21.10
2019-03-25T06:08:20.595Z,18.80
2019-03-25T06:09:20.597Z,19.70
2019-03-25T06:10:20.614Z,16.70
2019-03-25T06:11:20.562Z,19.40
2019-03-25T06:12:20.552Z,14.90
2019-03-25T06:13:20.548Z,15.10
2019-03-25T06:14:20.536Z,17.70
2019-03-25T06:15:20.548Z,15.40
2019-03-25T06:16:20.547Z,13.70
2019-03-25T06:17:20.502Z,17.30
2019-03-25T06:18:23.412Z,16.10
2019-03-25T06:19:20.478Z,15.70
2019-03-25T06:20:20.465Z,17.50
2019-03-25T06:21:20.472Z,25.40
2019-03-25T06:23:19.478Z,19.90
2019-03-25T06:24:20.421Z,16.40
2019-03-25T06:25:20.432Z,18.50
2019-03-25T06:26:20.389Z,17.10
2019-03-25T06:27:20.389Z,17.00
2019-03-25T06:28:20.376Z,14.40
2019-03-25T06:29:20.378Z,13.00
2019-03-25T06:30:20.370Z,12.60
2019-03-25T06:31:20.349Z,15.00
2019-03-25T06:32:20.334Z,14.10
2019-03-25T06:33:20.337Z,14.20
2019-03-25T06:34:22.913Z,15.40
2019-03-25T06:35:20.300Z,12.60
2019-03-25T06:36:20.456Z,15.00
2019-03-25T06:37:20.326Z,16.20
2019-03-25T06:38:20.268Z,11.80
2019-03-25T06:39:20.256Z,13.60
2019-03-25T06:40:20.247Z,14.90
2019-03-25T06:41:20.271Z,12.80
2019-03-25T06:42:20.247Z,11.20
2019-03-25T06:43:20.221Z,12.20
2019-03-25T06:44:20.336Z,11.70
2019-03-25T06:45:22.896Z,10.40
2019-03-25T06:46:22.226Z,13.10
2019-03-25T06:47:20.175Z,14.00
2019-03-25T06:49:19.895Z,12.60
2019-03-25T06:50:20.134Z,12.80
2019-03-25T06:51:20.148Z,10.70
2019-03-25T06:52:20.120Z,10.00
2019-03-25T06:53:20.106Z,9.20
2019-03-25T06:54:20.092Z,12.80
2019-03-25T06:55:20.079Z,15.30
2019-03-25T06:56:20.095Z,13.70
2019-03-25T06:57:25.437Z,13.50
2019-03-25T06:58:20.162Z,12.30
2019-03-25T06:59:20.142Z,11.40
2019-03-25T07:01:19.128Z,9.70
2019-03-25T07:02:22.937Z,9.40
2019-03-25T07:03:20.096Z,8.90
2019-03-25T07:04:20.047Z,11.60
2019-03-25T07:05:19.988Z,9.80
2019-03-25T07:06:20.004Z,11.30
2019-03-25T07:07:19.985Z,10.50
2019-03-25T07:08:19.991Z,14.00
2019-03-25T07:09:19.971Z,8.10
2019-03-25T07:10:25.901Z,13.10
2019-03-25T07:11:19.921Z,9.20
2019-03-25T07:12:19.925Z,12.90
2019-03-25T07:13:19.903Z,11.30
2019-03-25T07:14:19.879Z,9.90
2019-03-25T07:15:19.874Z,10.70
2019-03-25T07:16:19.884Z,10.10
2019-03-25T07:17:19.849Z,8.20
2019-03-25T07:18:19.846Z,9.70
2019-03-25T07:19:19.827Z,8.50
2019-03-25T07:20:19.816Z,9.50
2019-03-25T07:21:20.630Z,12.60
2019-03-25T07:22:19.819Z,12.10
2019-03-25T07:24:18.766Z,10.90
2019-03-25T07:25:20.402Z,9.70
2019-03-25T07:26:19.766Z,10.90
2019-03-25T07:27:19.919Z,7.10
2019-03-25T07:28:19.736Z,10.70
2019-03-25T07:29:19.712Z,10.20
2019-03-25T07:30:19.707Z,9.70
2019-03-25T07:31:19.820Z,10.90
2019-03-25T07:32:19.786Z,8.50
2019-03-25T07:33:22.508Z,10.70
2019-03-25T07:34:19.683Z,7.60
2019-03-25T07:35:19.688Z,8.30
2019-03-25T07:36:22.410Z,10.60
2019-03-25T07:37:23.686Z,9.50
2019-03-25T07:38:19.624Z,11.10
2019-03-25T07:39:19.606Z,9.50
2019-03-25T07:40:19.596Z,7.60
2019-03-25T07:41:19.623Z,8.30
2019-03-25T07:42:19.602Z,7.40
2019-03-25T07:43:19.684Z,5.40
2019-03-25T07:44:22.577Z,9.70
2019-03-25T07:45:19.550Z,6.60
2019-03-25T07:46:19.525Z,10.00
2019-03-25T07:47:21.491Z,9.70
2019-03-25T07:48:19.566Z,11.90
2019-03-25T07:49:19.508Z,8.30
2019-03-25T07:50:19.501Z,10.80
2019-03-25T07:51:19.552Z,14.00
2019-03-25T07:52:19.486Z,8.00
2019-03-25T07:53:19.475Z,10.40
2019-03-25T07:54:19.456Z,10.10
2019-03-25T07:55:19.450Z,8.50
2019-03-25T07:56:19.468Z,9.40
2019-03-25T07:57:19.406Z,12.30
2019-03-25T07:58:19.401Z,9.60
2019-03-25T07:59:20.258Z,11.70
2019-03-25T08:00:19.376Z,7.90
2019-03-25T08:01:19.366Z,11.80
2019-03-25T08:02:19.381Z,9.40
2019-03-25T08:03:19.346Z,9.40
2019-03-25T08:04:19.361Z,9.50
2019-03-25T08:05:19.367Z,9.50
2019-03-25T08:06:29.884Z,9.40
2019-03-25T08:07:19.881Z,10.20
2019-03-25T08:08:19.310Z,9.60
2019-03-25T08:09:19.286Z,8.00
2019-03-25T08:10:19.284Z,7.90
2019-03-25T08:11:21.258Z,10.10
2019-03-25T08:12:19.241Z,8.90
2019-03-25T08:13:22.027Z,10.00
2019-03-25T08:14:19.241Z,9.00
2019-03-25T08:15:19.211Z,10.00
2019-03-25T08:16:19.387Z,8.40
2019-03-25T08:17:19.195Z,9.60
2019-03-25T08:18:19.175Z,10.60
2019-03-25T08:19:19.176Z,7.80
2019-03-25T08:20:19.161Z,9.10
2019-03-25T08:21:19.147Z,12.80
2019-03-25T08:22:19.253Z,9.60
2019-03-25T08:23:19.129Z,7.60
2019-03-25T08:24:19.109Z,8.00
2019-03-25T08:25:19.144Z,9.60
2019-03-25T08:26:19.222Z,9.30
2019-03-25T08:27:19.172Z,8.40
2019-03-25T08:28:19.065Z,11.00
2019-03-25T08:29:19.055Z,7.80
2019-03-25T08:30:19.117Z,8.70
2019-03-25T08:31:19.039Z,9.80
2019-03-25T08:32:19.158Z,8.80
2019-03-25T08:33:19.012Z,10.70
2019-03-25T08:34:21.882Z,10.20
2019-03-25T08:35:18.999Z,10.50
2019-03-25T08:36:18.978Z,10.50
2019-03-25T08:37:18.963Z,10.00
2019-03-25T08:38:18.993Z,10.40
2019-03-25T08:39:19.999Z,10.00
2019-03-25T08:40:18.999Z,9.90
2019-03-25T08:41:19.102Z,11.40
2019-03-25T08:42:18.979Z,8.70
2019-03-25T08:43:18.898Z,9.70
2019-03-25T08:44:20.548Z,10.30
2019-03-25T08:45:18.882Z,10.30
2019-03-25T08:46:18.886Z,12.60
2019-03-25T08:47:19.029Z,9.40
2019-03-25T08:48:18.851Z,9.70
2019-03-25T08:49:18.844Z,9.90
2019-03-25T08:50:18.826Z,9.20
2019-03-25T08:51:18.856Z,8.90
2019-03-25T08:52:18.817Z,11.00
2019-03-25T08:53:18.790Z,10.30
2019-03-25T08:54:18.994Z,11.40
2019-03-25T08:55:18.960Z,10.20
2019-03-25T08:56:18.767Z,10.90
2019-03-25T08:57:18.799Z,10.70
2019-03-25T08:58:18.757Z,11.10
2019-03-25T08:59:19.392Z,15.80
2019-03-25T09:00:19.006Z,13.10
2019-03-25T09:01:18.711Z,11.50
2019-03-25T09:02:18.703Z,10.70
2019-03-25T09:03:18.709Z,12.80
2019-03-25T09:04:18.688Z,11.00
2019-03-25T09:05:18.699Z,12.40
2019-03-25T09:06:18.652Z,12.60
2019-03-25T09:07:18.896Z,13.00
2019-03-25T09:08:18.864Z,11.90
2019-03-25T09:09:18.629Z,13.80
2019-03-25T09:10:21.356Z,14.00
2019-03-25T09:11:21.357Z,13.30
2019-03-25T09:12:18.600Z,12.80
2019-03-25T09:13:21.893Z,15.70
2019-03-25T09:14:18.571Z,16.30
2019-03-25T09:15:18.564Z,15.30
2019-03-25T09:16:18.585Z,12.90
2019-03-25T09:17:18.558Z,13.40
2019-03-25T09:18:18.544Z,13.70
2019-03-25T09:19:18.511Z,13.60
2019-03-25T09:20:18.502Z,10.60
2019-03-25T09:21:19.352Z,11.50
2019-03-25T09:22:18.553Z,13.10
2019-03-25T09:23:18.473Z,11.30
2019-03-25T09:24:18.522Z,15.50
2019-03-25T09:25:18.473Z,14.60
2019-03-25T09:26:18.485Z,13.90
2019-03-25T09:27:18.436Z,12.90
2019-03-25T09:28:24.242Z,13.90
2019-03-25T09:29:18.402Z,14.10
2019-03-25T09:30:19.344Z,13.10
2019-03-25T09:31:18.384Z,12.30
2019-03-25T09:32:18.369Z,12.40
2019-03-25T09:33:18.376Z,11.80
2019-03-25T09:34:18.478Z,12.20
2019-03-25T09:35:18.340Z,13.50
2019-03-25T09:36:18.376Z,12.60
2019-03-25T09:37:18.409Z,11.00
2019-03-25T09:38:18.459Z,13.00
2019-03-25T09:39:18.402Z,11.20
2019-03-25T09:40:18.465Z,11.90
2019-03-25T09:41:18.340Z,12.40
2019-03-25T09:42:18.390Z,13.10
2019-03-25T09:43:18.297Z,12.10
2019-03-25T09:44:18.486Z,11.30
2019-03-25T09:45:18.257Z,13.90
2019-03-25T09:46:18.318Z,12.10
2019-03-25T09:47:18.271Z,13.60
2019-03-25T09:48:18.290Z,10.70
2019-03-25T09:49:18.183Z,11.30
2019-03-25T09:50:18.197Z,12.10
2019-03-25T09:51:18.195Z,13.10
2019-03-25T09:52:18.223Z,10.80
2019-03-25T09:53:18.847Z,9.90
2019-03-25T09:54:18.187Z,10.80
2019-03-25T09:55:18.218Z,10.40
2019-03-25T09:56:18.222Z,9.90
2019-03-25T09:57:19.536Z,10.80
2019-03-25T09:58:18.137Z,14.20
2019-03-25T09:59:18.129Z,10.70
2019-03-25T10:00:18.133Z,8.40
2019-03-25T10:01:18.110Z,8.20
2019-03-25T10:02:18.149Z,8.30
2019-03-25T10:03:18.049Z,9.50
2019-03-25T10:04:20.139Z,8.50
2019-03-25T10:05:18.019Z,10.70
2019-03-25T10:06:18.003Z,7.40
2019-03-25T10:07:18.049Z,9.50
2019-03-25T10:08:20.851Z,7.80
2019-03-25T10:09:17.969Z,9.20
2019-03-25T10:10:17.963Z,10.60
2019-03-25T10:11:17.953Z,8.90
2019-03-25T10:12:17.958Z,8.50
2019-03-25T10:13:17.989Z,8.00
2019-03-25T10:14:18.109Z,9.00
2019-03-25T10:15:19.221Z,6.90
2019-03-25T10:16:17.915Z,8.00
2019-03-25T10:17:17.951Z,6.30
2019-03-25T10:18:17.910Z,8.70
2019-03-25T10:19:18.218Z,9.60
2019-03-25T10:20:18.172Z,7.10
2019-03-25T10:21:17.868Z,6.10
2019-03-25T10:22:17.847Z,7.80
2019-03-25T10:23:17.825Z,6.40
2019-03-25T10:24:17.849Z,5.70
2019-03-25T10:25:17.809Z,6.40
2019-03-25T10:26:17.786Z,6.40
2019-03-25T10:27:17.771Z,7.90
2019-03-25T10:28:18.352Z,8.00
2019-03-25T10:29:17.761Z,7.00
2019-03-25T10:30:17.766Z,10.30
2019-03-25T10:31:17.734Z,6.90
2019-03-25T10:32:17.783Z,6.90
2019-03-25T10:33:17.709Z,9.20
2019-03-25T10:34:17.717Z,5.40
2019-03-25T10:35:17.725Z,9.80
2019-03-25T10:36:17.685Z,7.10
2019-03-25T10:37:18.340Z,8.50
2019-03-25T10:38:19.697Z,8.20
2019-03-25T10:39:17.672Z,8.50
2019-03-25T10:40:17.743Z,12.20
2019-03-25T10:41:17.638Z,6.20
2019-03-25T10:42:17.674Z,6.30
2019-03-25T10:43:17.598Z,7.10
2019-03-25T10:44:17.593Z,6.30
2019-03-25T10:45:17.582Z,7.70
2019-03-25T10:46:17.583Z,5.70
2019-03-25T10:47:17.576Z,7.10
2019-03-25T10:48:17.541Z,6.50
2019-03-25T10:49:17.582Z,6.70
2019-03-25T10:50:17.521Z,6.60
2019-03-25T10:51:17.558Z,8.40
2019-03-25T10:52:18.508Z,9.00
2019-03-25T10:53:17.490Z,9.30
2019-03-25T10:54:17.628Z,7.60
2019-03-25T10:55:17.467Z,7.90
2019-03-25T10:56:17.472Z,9.60
2019-03-25T10:57:17.483Z,7.90
2019-03-25T10:58:18.363Z,6.80
2019-03-25T10:59:17.480Z,8.10
2019-03-25T11:00:17.454Z,10.10
2019-03-25T11:01:17.505Z,7.40
2019-03-25T11:02:17.417Z,8.30
2019-03-25T11:03:17.388Z,7.70
2019-03-25T11:04:17.374Z,5.40
2019-03-25T11:05:17.378Z,6.00
2019-03-25T11:06:17.444Z,6.90
2019-03-25T11:07:17.410Z,6.30
2019-03-25T11:08:17.344Z,5.70
2019-03-25T11:09:17.363Z,5.60
2019-03-25T11:10:17.366Z,5.20
2019-03-25T11:11:17.404Z,5.40
2019-03-25T11:12:17.288Z,5.10
2019-03-25T11:13:17.513Z,5.70
2019-03-25T11:14:17.302Z,7.10
2019-03-25T11:15:17.308Z,8.20
2019-03-25T11:16:17.306Z,6.40
2019-03-25T11:17:17.266Z,4.70
2019-03-25T11:18:17.265Z,3.90
2019-03-25T11:19:18.091Z,4.80
2019-03-25T11:20:17.231Z,3.00
2019-03-25T11:21:17.204Z,3.00
2019-03-25T11:22:17.205Z,3.20
2019-03-25T11:23:18.965Z,4.60
2019-03-25T11:24:17.157Z,3.40
2019-03-25T11:25:17.933Z,3.20
2019-03-25T11:26:17.141Z,4.00
2019-03-25T11:27:17.129Z,3.20
2019-03-25T11:29:16.225Z,4.50
2019-03-25T11:30:17.136Z,4.70
2019-03-25T11:31:17.085Z,6.60
2019-03-25T11:32:17.080Z,2.70
2019-03-25T11:33:17.100Z,4.20
2019-03-25T11:34:20.416Z,6.30
2019-03-25T11:35:17.042Z,3.70
2019-03-25T11:36:17.032Z,3.50
2019-03-25T11:37:17.017Z,2.50
2019-03-25T11:38:17.063Z,3.70
2019-03-25T11:39:17.078Z,2.70
2019-03-25T11:40:16.977Z,3.20
2019-03-25T11:41:16.989Z,4.20
2019-03-25T11:42:16.974Z,3.60
2019-03-25T11:43:16.977Z,4.20
2019-03-25T11:44:16.964Z,2.90
2019-03-25T11:45:16.934Z,3.00
2019-03-25T11:46:16.931Z,2.30
2019-03-25T11:47:20.182Z,4.30
2019-03-25T11:48:17.473Z,3.60
2019-03-25T11:49:16.895Z,4.00
2019-03-25T11:50:16.980Z,3.10
2019-03-25T11:51:16.925Z,5.30
2019-03-25T11:52:16.845Z,6.70
2019-03-25T11:53:16.893Z,4.80
2019-03-25T11:54:16.848Z,5.60
2019-03-25T11:55:17.799Z,6.10
2019-03-25T11:56:16.832Z,6.50
2019-03-25T11:57:16.818Z,6.60
2019-03-25T11:58:16.842Z,6.30
2019-03-25T11:59:18.794Z,5.70
2019-03-25T12:00:16.768Z,5.30
2019-03-25T12:01:16.752Z,4.30
2019-03-25T12:02:17.809Z,5.50
2019-03-25T12:03:16.755Z,4.10
2019-03-25T12:04:16.727Z,4.40
2019-03-25T12:05:16.768Z,5.30
2019-03-25T12:06:16.730Z,4.40
2019-03-25T12:07:16.696Z,9.20
2019-03-25T12:08:16.690Z,4.30
2019-03-25T12:09:16.685Z,4.80
2019-03-25T12:10:16.801Z,6.60
2019-03-25T12:11:16.724Z,4.30
2019-03-25T12:12:16.639Z,5.00
2019-03-25T12:13:16.619Z,4.50
2019-03-25T12:14:16.618Z,5.70
2019-03-25T12:15:16.888Z,6.70
2019-03-25T12:16:16.701Z,6.40
2019-03-25T12:17:16.582Z,4.20
2019-03-25T12:19:16.509Z,8.20
2019-03-25T12:20:16.584Z,3.50
2019-03-25T12:21:16.594Z,4.50
2019-03-25T12:22:16.528Z,3.80
2019-03-25T12:23:25.755Z,5.20
2019-03-25T12:24:16.515Z,6.30
2019-03-25T12:25:16.487Z,4.20
2019-03-25T12:26:16.491Z,5.50
2019-03-25T12:27:16.497Z,6.30
2019-03-25T12:28:16.457Z,5.70
2019-03-25T12:29:16.460Z,4.90
2019-03-25T12:30:16.474Z,6.60
2019-03-25T12:31:16.432Z,5.50
2019-03-25T12:32:16.407Z,4.20
2019-03-25T12:33:16.399Z,3.40
2019-03-25T12:34:16.417Z,3.40
2019-03-25T12:35:16.381Z,4.40
2019-03-25T12:36:16.412Z,6.20
2019-03-25T12:37:16.367Z,5.40
2019-03-25T12:38:16.390Z,6.30
2019-03-25T12:39:16.364Z,5.60
2019-03-25T12:40:16.334Z,5.90
2019-03-25T12:41:16.306Z,9.20
2019-03-25T12:42:16.332Z,5.70
2019-03-25T12:43:16.294Z,3.80
2019-03-25T12:44:16.275Z,6.10
2019-03-25T12:45:16.290Z,4.60
2019-03-25T12:46:16.262Z,3.30
2019-03-25T12:47:16.245Z,3.80
2019-03-25T12:48:16.258Z,6.90
2019-03-25T12:49:16.224Z,4.40
2019-03-25T12:50:16.215Z,5.00
2019-03-25T12:51:16.198Z,7.80
2019-03-25T12:52:16.193Z,5.40
2019-03-25T12:53:16.178Z,5.70
2019-03-25T12:54:16.196Z,3.50
2019-03-25T12:55:16.155Z,6.50
2019-03-25T12:56:16.147Z,5.50
2019-03-25T12:57:16.793Z,5.70
2019-03-25T12:58:16.130Z,4.10
2019-03-25T12:59:16.130Z,4.50
2019-03-25T13:00:16.147Z,3.20
2019-03-25T13:01:16.094Z,3.10
2019-03-25T13:02:16.088Z,4.30
2019-03-25T13:03:16.075Z,4.20
2019-03-25T13:04:16.061Z,2.50
2019-03-25T13:05:16.070Z,4.10
2019-03-25T13:06:16.106Z,3.10
2019-03-25T13:07:16.029Z,3.50
2019-03-25T13:08:16.028Z,3.40